createdAt,value
2022-10-11T00:01:16.603Z,14.31
2022-10-11T00:03:43.030Z,14.33
2022-10-11T00:06:59.269Z,14.34
2022-10-11T00:09:25.687Z,14.36
2022-10-11T00:11:55.689Z,14.32
2022-10-11T00:14:23.785Z,14.20
2022-10-11T00:16:50.220Z,14.12
2022-10-11T00:19:16.819Z,14.13
2022-10-11T00:21:43.240Z,14.12
2022-10-11T00:24:10.476Z,14.07
2022-10-11T00:26:36.843Z,14.10
2022-10-11T00:29:03.541Z,14.15
2022-10-11T00:31:34.667Z,14.13
2022-10-11T00:34:01.984Z,14.11
2022-10-11T00:36:28.430Z,14.20
2022-10-11T00:38:54.910Z,14.27
2022-10-11T00:41:22.009Z,14.24
2022-10-11T00:43:48.617Z,14.19
2022-10-11T00:46:17.892Z,14.08
2022-10-11T00:48:45.979Z,14.04
2022-10-11T00:51:23.926Z,13.97
2022-10-11T00:53:51.921Z,13.98
2022-10-11T00:59:45.124Z,13.97
2022-10-11T01:02:13.616Z,14.02
2022-10-11T01:08:27.522Z,13.90
2022-10-11T01:12:02.432Z,14.02
2022-10-11T01:14:44.288Z,14.05
2022-10-11T01:17:22.587Z,13.96
2022-10-11T01:19:57.922Z,13.95
2022-10-11T01:23:04.930Z,13.85
2022-10-11T01:26:09.017Z,13.84
2022-10-11T01:28:50.707Z,13.84
2022-10-11T01:31:29.072Z,13.73
2022-10-11T01:34:03.296Z,13.71
2022-10-11T01:36:35.893Z,13.78
2022-10-11T01:39:40.774Z,13.85
2022-10-11T01:42:10.826Z,13.70
2022-10-11T01:44:39.131Z,13.63
2022-10-11T01:47:05.929Z,13.72
2022-10-11T01:49:32.410Z,13.74
2022-10-11T01:52:05.009Z,13.75
2022-10-11T01:55:10.449Z,13.74
2022-10-11T01:58:02.137Z,13.71
2022-10-11T02:00:44.557Z,13.70
2022-10-11T02:03:19.843Z,13.58
2022-10-11T02:06:02.765Z,13.50
2022-10-11T02:08:47.044Z,13.44
2022-10-11T02:11:24.679Z,13.37
2022-10-11T02:13:54.597Z,13.37
2022-10-11T02:17:07.641Z,13.44
2022-10-11T02:19:50.056Z,13.54
2022-10-11T02:22:27.835Z,13.64
2022-10-11T02:24:58.157Z,13.63
2022-10-11T02:27:29.548Z,13.59
2022-10-11T02:29:59.751Z,13.60
2022-10-11T02:32:29.336Z,13.63
2022-10-11T02:34:58.968Z,13.64
2022-10-11T02:37:40.537Z,13.55
2022-10-11T02:40:11.574Z,13.48
2022-10-11T02:42:44.496Z,13.57
2022-10-11T02:45:16.013Z,13.64
2022-10-11T02:47:43.436Z,13.59
2022-10-11T02:50:14.251Z,13.62
2022-10-11T02:52:40.708Z,13.52
2022-10-11T02:55:08.097Z,13.58
2022-10-11T02:57:34.538Z,13.57
2022-10-11T03:00:00.927Z,13.57
2022-10-11T03:02:27.633Z,13.58
2022-10-11T03:04:54.069Z,13.50
2022-10-11T03:07:20.513Z,13.49
2022-10-11T03:09:46.915Z,13.36
2022-10-11T03:12:13.318Z,13.26
2022-10-11T03:14:39.726Z,13.15
2022-10-11T03:17:31.040Z,13.07
2022-10-11T03:19:52.552Z,13.12
2022-10-11T03:22:19.024Z,13.14
2022-10-11T03:24:45.446Z,13.14
2022-10-11T03:27:12.014Z,13.19
2022-10-11T03:29:38.459Z,13.21
2022-10-11T03:32:05.112Z,13.21
2022-10-11T03:34:31.510Z,13.15
2022-10-11T03:36:57.941Z,13.19
2022-10-11T03:39:24.347Z,13.19
2022-10-11T03:41:50.818Z,13.17
2022-10-11T03:44:17.217Z,13.21
2022-10-11T03:46:43.613Z,13.08
2022-10-11T03:49:10.020Z,13.00
2022-10-11T03:51:36.487Z,13.07
2022-10-11T03:54:02.997Z,13.11
2022-10-11T03:56:29.503Z,13.09
2022-10-11T03:58:55.927Z,12.95
2022-10-11T04:01:22.399Z,12.98
2022-10-11T04:03:48.838Z,13.07
2022-10-11T04:06:15.283Z,13.14
2022-10-11T04:08:41.772Z,13.21
2022-10-11T04:11:08.195Z,13.18
2022-10-11T04:13:34.590Z,13.02
2022-10-11T04:16:01.095Z,13.01
2022-10-11T04:18:27.589Z,13.04
2022-10-11T04:20:54.041Z,13.10
2022-10-11T04:23:20.505Z,12.97
2022-10-11T04:25:48.235Z,12.89
2022-10-11T04:28:14.876Z,12.92
2022-10-11T04:30:41.335Z,12.83
2022-10-11T04:33:07.771Z,12.74
2022-10-11T04:35:34.238Z,12.77
2022-10-11T04:38:00.709Z,12.61
2022-10-11T04:40:27.116Z,12.52
2022-10-11T04:42:53.799Z,12.46
2022-10-11T04:45:21.520Z,12.52
2022-10-11T04:47:48.708Z,12.54
2022-10-11T04:50:15.758Z,12.64
2022-10-11T04:52:42.285Z,12.66
2022-10-11T04:55:09.332Z,12.53
2022-10-11T04:58:12.991Z,12.39
2022-10-11T05:00:39.385Z,12.40
2022-10-11T05:03:05.792Z,12.39
2022-10-11T05:05:32.248Z,12.40
2022-10-11T05:07:58.644Z,12.35
2022-10-11T05:10:25.023Z,12.42
2022-10-11T05:12:51.453Z,12.49
2022-10-11T05:15:18.012Z,12.48
2022-10-11T05:17:44.395Z,12.49
2022-10-11T05:20:12.607Z,12.55
2022-10-11T05:22:39.017Z,12.64
2022-10-11T05:25:05.675Z,12.83
2022-10-11T05:27:32.216Z,12.86
2022-10-11T05:29:58.649Z,12.86
2022-10-11T05:32:27.899Z,12.79
2022-10-11T05:34:54.627Z,12.79
2022-10-11T05:37:21.216Z,12.80
2022-10-11T05:39:47.651Z,12.83
2022-10-11T05:42:14.188Z,12.77
2022-10-11T05:44:40.569Z,12.75
2022-10-11T05:47:07.029Z,12.72
2022-10-11T05:49:33.505Z,12.70
2022-10-11T05:51:59.907Z,12.83
2022-10-11T05:54:30.027Z,12.92
2022-10-11T05:56:56.437Z,12.75
2022-10-11T05:59:22.882Z,12.73
2022-10-11T06:01:49.351Z,12.83
2022-10-11T06:04:18.875Z,12.90
2022-10-11T06:06:45.475Z,12.92
2022-10-11T06:09:12.622Z,12.90
2022-10-11T06:11:41.248Z,12.90
2022-10-11T06:14:09.185Z,12.79
2022-10-11T06:16:35.612Z,12.85
2022-10-11T06:19:01.994Z,12.84
2022-10-11T06:21:28.426Z,12.85
2022-10-11T06:24:00.837Z,12.86
2022-10-11T06:26:28.328Z,12.83
2022-10-11T06:28:54.887Z,12.87
2022-10-11T06:31:21.365Z,12.91
2022-10-11T06:33:47.833Z,13.01
2022-10-11T06:36:15.486Z,13.00
2022-10-11T06:38:44.907Z,12.95
2022-10-11T06:41:23.668Z,13.09
2022-10-11T06:43:50.473Z,13.12
2022-10-11T06:46:18.643Z,13.05
2022-10-11T06:48:46.553Z,13.16
2022-10-11T06:51:15.946Z,13.21
2022-10-11T06:54:01.840Z,13.11
2022-10-11T06:56:30.193Z,13.20
2022-10-11T06:58:57.873Z,13.23
2022-10-11T07:01:24.882Z,13.13
2022-10-11T07:03:52.889Z,13.05
2022-10-11T07:06:22.419Z,13.05
2022-10-11T07:08:49.162Z,13.20
2022-10-11T07:11:18.403Z,13.33
2022-10-11T07:13:52.915Z,13.37
2022-10-11T07:16:20.233Z,13.36
2022-10-11T07:18:47.899Z,13.36
2022-10-11T07:21:16.111Z,13.34
2022-10-11T07:23:43.037Z,13.32
2022-10-11T07:26:10.517Z,13.38
2022-10-11T07:28:38.376Z,13.38
2022-10-11T07:31:11.278Z,13.45
2022-10-11T07:33:38.126Z,13.49
2022-10-11T07:36:06.159Z,13.38
2022-10-11T07:38:33.515Z,13.47
2022-10-11T07:41:05.306Z,13.57
2022-10-11T07:43:32.332Z,13.62
2022-10-11T07:46:04.204Z,13.70
2022-10-11T07:48:32.641Z,13.83
2022-10-11T07:51:11.152Z,13.76
2022-10-11T07:53:42.722Z,13.80
2022-10-11T07:56:12.335Z,13.82
2022-10-11T07:58:40.100Z,13.88
2022-10-11T08:01:07.254Z,13.85
2022-10-11T08:03:34.086Z,13.96
2022-10-11T08:06:03.517Z,13.96
2022-10-11T08:08:31.068Z,13.79
2022-10-11T08:10:59.085Z,13.95
2022-10-11T08:13:26.115Z,14.05
2022-10-11T08:15:52.728Z,14.20
2022-10-11T08:18:19.486Z,14.28
2022-10-11T08:20:46.073Z,14.35
2022-10-11T08:23:12.801Z,14.52
2022-10-11T08:25:41.745Z,14.61
2022-10-11T08:28:09.610Z,14.66
2022-10-11T08:30:36.451Z,14.69
2022-10-11T08:33:07.550Z,14.76
2022-10-11T08:35:36.068Z,14.82
2022-10-11T08:38:02.964Z,14.83
2022-10-11T08:40:34.276Z,14.85
2022-10-11T08:43:08.244Z,14.93
2022-10-11T08:45:43.057Z,14.99
2022-10-11T08:48:25.441Z,15.03
2022-10-11T08:50:54.315Z,15.06
2022-10-11T08:53:44.838Z,15.23
2022-10-11T08:56:14.247Z,15.24
2022-10-11T08:58:49.557Z,15.20
2022-10-11T09:01:20.774Z,15.19
2022-10-11T09:03:49.235Z,15.24
2022-10-11T09:06:22.362Z,15.31
2022-10-11T09:09:20.991Z,15.39
2022-10-11T09:12:06.174Z,15.49
2022-10-11T09:14:32.503Z,15.58
2022-10-11T09:17:29.411Z,15.69
2022-10-11T09:20:01.708Z,15.78
2022-10-11T09:22:46.257Z,15.94
2022-10-11T09:25:26.540Z,16.07
2022-10-11T09:28:02.826Z,16.06
2022-10-11T09:30:30.257Z,15.93
2022-10-11T09:33:04.481Z,15.90
2022-10-11T09:35:39.848Z,15.85
2022-10-11T09:38:17.457Z,15.81
2022-10-11T09:41:02.254Z,15.71
2022-10-11T09:43:28.800Z,15.75
2022-10-11T09:45:55.241Z,15.94
2022-10-11T09:48:38.257Z,16.07
2022-10-11T09:51:19.761Z,16.22
2022-10-11T09:53:52.726Z,16.37
2022-10-11T09:56:19.449Z,16.50
2022-10-11T09:58:46.330Z,16.66
2022-10-11T10:01:23.646Z,16.75
2022-10-11T10:04:08.257Z,17.10
2022-10-11T10:06:35.854Z,17.21
2022-10-11T10:09:24.151Z,17.33
2022-10-11T10:11:50.815Z,17.49
2022-10-11T10:14:24.203Z,17.46
2022-10-11T10:17:03.836Z,17.63
2022-10-11T10:19:39.898Z,17.83
2022-10-11T10:22:19.670Z,17.92
2022-10-11T10:24:49.034Z,17.78
2022-10-11T10:27:25.592Z,17.80
2022-10-11T10:30:09.913Z,18.16
2022-10-11T10:32:48.499Z,18.27
2022-10-11T10:36:00.443Z,18.38
2022-10-11T10:38:27.427Z,18.03
2022-10-11T10:40:58.186Z,18.06
2022-10-11T10:43:29.422Z,18.44
2022-10-11T10:46:13.873Z,18.50
2022-10-11T10:49:28.692Z,18.67
2022-10-11T10:51:57.807Z,18.59
2022-10-11T10:54:35.996Z,18.71
2022-10-11T10:57:10.388Z,18.81
2022-10-11T10:59:47.517Z,18.95
2022-10-11T11:02:35.541Z,18.98
2022-10-11T11:05:20.969Z,18.99
2022-10-11T11:07:54.498Z,19.06
2022-10-11T11:10:50.238Z,19.16
2022-10-11T11:13:33.304Z,19.25
2022-10-11T11:16:08.536Z,19.15
2022-10-11T11:18:46.841Z,19.09
2022-10-11T11:21:30.961Z,19.18
2022-10-11T11:24:21.226Z,19.51
2022-10-11T11:27:04.330Z,19.62
2022-10-11T11:29:39.845Z,19.37
2022-10-11T11:32:24.901Z,19.37
2022-10-11T11:35:01.021Z,19.62
2022-10-11T11:37:40.662Z,19.69
2022-10-11T11:40:19.675Z,19.50
2022-10-11T11:42:53.492Z,19.50
2022-10-11T11:45:28.431Z,19.65
2022-10-11T11:48:06.537Z,19.79
2022-10-11T11:50:44.909Z,19.89
2022-10-11T11:53:16.480Z,19.90
2022-10-11T11:56:12.250Z,19.91
2022-10-11T11:58:48.268Z,20.15
2022-10-11T12:01:31.495Z,20.30
2022-10-11T12:04:12.076Z,20.32
2022-10-11T12:06:52.505Z,20.35
2022-10-11T12:09:25.835Z,20.33
2022-10-11T12:11:58.729Z,20.60
2022-10-11T12:14:27.357Z,20.59
2022-10-11T12:17:14.467Z,20.58
2022-10-11T12:19:57.353Z,20.73
2022-10-11T12:22:26.452Z,20.72
2022-10-11T12:24:58.493Z,20.70
2022-10-11T12:27:56.587Z,20.57
2022-10-11T12:30:47.964Z,20.63
2022-10-11T12:33:24.167Z,20.89
2022-10-11T12:35:53.424Z,21.00
2022-10-11T12:38:22.966Z,21.07
2022-10-11T12:41:00.410Z,21.05
2022-10-11T12:43:30.524Z,20.95
2022-10-11T12:45:57.174Z,21.02
2022-10-11T12:48:40.777Z,20.90
2022-10-11T12:51:44.938Z,20.67
2022-10-11T12:54:34.637Z,20.79
2022-10-11T12:57:12.100Z,20.84
2022-10-11T12:59:43.823Z,20.80
2022-10-11T13:02:29.214Z,20.80
2022-10-11T13:05:40.913Z,21.05
2022-10-11T13:08:20.554Z,20.96
2022-10-11T13:10:47.952Z,20.95
2022-10-11T13:13:24.711Z,20.95
2022-10-11T13:15:56.600Z,20.91
2022-10-11T13:18:26.093Z,20.85
2022-10-11T13:20:53.033Z,20.92
2022-10-11T13:23:29.927Z,20.94
2022-10-11T13:25:56.622Z,20.87
2022-10-11T13:28:23.866Z,20.81
2022-10-11T13:30:54.391Z,20.86
2022-10-11T13:33:32.078Z,20.88
2022-10-11T13:36:00.457Z,20.81
2022-10-11T13:38:30.616Z,20.85
2022-10-11T13:40:59.785Z,20.85
2022-10-11T13:43:28.546Z,20.86
2022-10-11T13:45:56.485Z,20.88
2022-10-11T13:48:25.235Z,20.87
2022-10-11T13:51:26.558Z,20.95
2022-10-11T13:53:58.734Z,20.99
2022-10-11T13:56:26.760Z,21.02
2022-10-11T13:58:54.470Z,20.99
2022-10-11T14:01:22.863Z,20.99
2022-10-11T14:03:56.690Z,20.98
2022-10-11T14:06:24.153Z,20.93
2022-10-11T14:08:55.932Z,20.98
2022-10-11T14:11:34.657Z,21.05
2022-10-11T14:14:21.258Z,21.10
2022-10-11T14:16:58.786Z,21.13
2022-10-11T14:19:25.457Z,21.08
2022-10-11T14:21:53.267Z,21.03
2022-10-11T14:24:20.565Z,21.01
2022-10-11T14:26:50.581Z,20.97
2022-10-11T14:29:25.844Z,21.08
2022-10-11T14:31:56.563Z,21.05
2022-10-11T14:34:25.662Z,20.96
2022-10-11T14:36:53.510Z,20.92
2022-10-11T14:39:22.592Z,20.95
2022-10-11T14:41:50.084Z,21.03
2022-10-11T14:44:17.134Z,21.10
2022-10-11T14:46:45.224Z,21.19
2022-10-11T14:49:13.633Z,21.20
2022-10-11T14:51:40.761Z,21.18
2022-10-11T14:54:07.694Z,21.08
2022-10-11T14:56:34.192Z,21.05
2022-10-11T14:59:00.612Z,20.99
2022-10-11T15:01:27.275Z,20.91
2022-10-11T15:03:53.794Z,20.98
2022-10-11T15:06:28.276Z,21.03
2022-10-11T15:08:54.822Z,21.07
2022-10-11T15:11:23.082Z,21.12
2022-10-11T15:13:49.876Z,21.19
2022-10-11T15:16:19.509Z,21.17
2022-10-11T15:18:53.560Z,21.15
2022-10-11T15:21:26.024Z,21.16
2022-10-11T15:23:53.721Z,21.16
2022-10-11T15:26:23.852Z,21.14
2022-10-11T15:28:51.412Z,21.13
2022-10-11T15:31:18.130Z,21.08
2022-10-11T15:33:44.930Z,21.06
2022-10-11T15:36:14.530Z,21.08
2022-10-11T15:38:41.586Z,21.06
2022-10-11T15:41:11.594Z,21.05
2022-10-11T15:43:38.065Z,20.99
2022-10-11T15:46:05.204Z,20.89
2022-10-11T15:48:33.052Z,20.83
2022-10-11T15:50:59.718Z,20.78
2022-10-11T15:53:30.912Z,20.67
2022-10-11T15:56:18.729Z,20.57
2022-10-11T15:58:45.754Z,20.53
2022-10-11T16:01:16.274Z,20.46
2022-10-11T16:03:44.555Z,20.43
2022-10-11T16:06:11.731Z,20.45
2022-10-11T16:08:39.125Z,20.38
2022-10-11T16:11:07.535Z,20.28
2022-10-11T16:13:34.707Z,20.23
2022-10-11T16:16:02.778Z,20.14
2022-10-11T16:18:34.911Z,20.06
2022-10-11T16:21:08.103Z,19.94
2022-10-11T16:23:35.006Z,19.84
2022-10-11T16:26:06.523Z,19.78
2022-10-11T16:28:33.592Z,19.69
2022-10-11T16:34:40.573Z,19.51
2022-10-11T16:37:06.974Z,19.46
2022-10-11T16:39:33.601Z,19.41
2022-10-11T16:42:00.026Z,19.36
2022-10-11T16:44:27.770Z,19.32
2022-10-11T16:46:55.741Z,19.26
2022-10-11T16:49:25.635Z,19.18
2022-10-11T16:51:54.142Z,19.13
2022-10-11T16:54:21.268Z,19.05
2022-10-11T16:56:50.757Z,18.98
2022-10-11T16:59:17.291Z,18.91
2022-10-11T17:01:45.136Z,18.86
2022-10-11T17:04:13.033Z,18.81
2022-10-11T17:06:40.994Z,18.70
2022-10-11T17:09:07.557Z,18.59
2022-10-11T17:11:34.138Z,18.52
2022-10-11T17:14:01.229Z,18.51
2022-10-11T17:16:27.843Z,18.48
2022-10-11T17:18:54.490Z,18.43
2022-10-11T17:21:22.011Z,18.36
2022-10-11T17:23:49.386Z,18.27
2022-10-11T17:26:26.184Z,18.22
2022-10-11T17:28:57.488Z,18.19
2022-10-11T17:31:24.969Z,18.17
2022-10-11T17:33:53.087Z,18.10
2022-10-11T17:36:27.687Z,18.09
2022-10-11T17:38:54.204Z,18.03
2022-10-11T17:41:20.945Z,17.93
2022-10-11T17:43:47.970Z,17.86
2022-10-11T17:46:17.101Z,17.88
2022-10-11T17:48:44.574Z,17.87
2022-10-11T17:51:13.983Z,17.79
2022-10-11T17:53:40.684Z,17.72
2022-10-11T17:56:12.482Z,17.69
2022-10-11T17:58:38.968Z,17.65
2022-10-11T18:01:09.372Z,17.63
2022-10-11T18:03:36.694Z,17.58
2022-10-11T18:06:05.667Z,17.49
2022-10-11T18:08:39.994Z,17.44
2022-10-11T18:11:12.453Z,17.44
2022-10-11T18:13:42.260Z,17.40
2022-10-11T18:16:09.929Z,17.31
2022-10-11T18:18:36.655Z,17.33
2022-10-11T18:21:03.197Z,17.33
2022-10-11T18:23:29.688Z,17.28
2022-10-11T18:25:56.093Z,17.28
2022-10-11T18:28:22.532Z,17.23
2022-10-11T18:30:49.188Z,17.23
2022-10-11T18:33:15.973Z,17.23
2022-10-11T18:35:42.770Z,17.15
2022-10-11T18:38:10.436Z,17.08
2022-10-11T18:40:39.622Z,16.97
2022-10-11T18:43:07.715Z,16.96
2022-10-11T18:45:34.169Z,16.97
2022-10-11T18:48:00.618Z,16.99
2022-10-11T18:50:27.043Z,16.98
2022-10-11T18:52:53.539Z,16.88
2022-10-11T18:55:19.982Z,16.75
2022-10-11T18:57:46.383Z,16.67
2022-10-11T19:00:37.773Z,16.72
2022-10-11T19:02:59.670Z,16.65
2022-10-11T19:05:27.613Z,16.54
2022-10-11T19:07:54.001Z,16.45
2022-10-11T19:10:20.408Z,16.35
2022-10-11T19:12:46.907Z,16.38
2022-10-11T19:15:13.310Z,16.42
2022-10-11T19:17:39.696Z,16.47
2022-10-11T19:20:06.498Z,16.48
2022-10-11T19:22:32.889Z,16.51
2022-10-11T19:24:59.300Z,16.50
2022-10-11T19:27:25.756Z,16.45
2022-10-11T19:29:52.125Z,16.27
2022-10-11T19:32:18.513Z,16.19
2022-10-11T19:34:44.950Z,16.14
2022-10-11T19:37:13.289Z,16.08
2022-10-11T19:39:40.235Z,16.05
2022-10-11T19:42:06.745Z,16.07
2022-10-11T19:44:37.126Z,16.15
2022-10-11T19:47:06.010Z,16.24
2022-10-11T19:49:32.859Z,16.29
2022-10-11T19:51:59.373Z,16.25
2022-10-11T19:54:25.832Z,16.10
2022-10-11T19:56:52.599Z,15.99
2022-10-11T19:59:19.211Z,16.02
2022-10-11T20:01:51.948Z,16.01
2022-10-11T20:04:47.056Z,16.02
2022-10-11T20:07:05.868Z,15.88
2022-10-11T20:09:32.349Z,15.75
2022-10-11T20:11:58.836Z,15.75
2022-10-11T20:14:25.590Z,15.79
2022-10-11T20:16:52.107Z,15.84
2022-10-11T20:19:19.316Z,15.91
2022-10-11T20:21:45.870Z,15.86
2022-10-11T20:24:12.734Z,15.82
2022-10-11T20:26:39.532Z,15.78
2022-10-11T20:29:06.527Z,15.75
2022-10-11T20:31:34.476Z,15.83
2022-10-11T20:34:04.830Z,15.77
2022-10-11T20:36:32.192Z,15.67
2022-10-11T20:38:59.862Z,15.60
2022-10-11T20:41:32.312Z,15.45
2022-10-11T20:44:00.243Z,15.37
2022-10-11T20:46:32.554Z,15.33
2022-10-11T20:49:02.390Z,15.37
2022-10-11T20:51:30.658Z,15.40
2022-10-11T20:53:57.899Z,15.34
2022-10-11T20:56:24.890Z,15.34
2022-10-11T20:58:53.153Z,15.36
2022-10-11T21:01:22.814Z,15.41
2022-10-11T21:03:50.366Z,15.44
2022-10-11T21:06:17.103Z,15.42
2022-10-11T21:08:43.913Z,15.23
2022-10-11T21:11:10.915Z,15.00
2022-10-11T21:13:37.930Z,14.94
2022-10-11T21:16:22.335Z,14.93
2022-10-11T21:18:53.309Z,15.00
2022-10-11T21:21:20.161Z,15.07
2022-10-11T21:23:46.957Z,15.05
2022-10-11T21:26:14.724Z,15.06
2022-10-11T21:28:41.495Z,15.00
2022-10-11T21:31:11.102Z,14.95
2022-10-11T21:33:38.702Z,15.00
2022-10-11T21:36:13.438Z,15.09
2022-10-11T21:38:40.404Z,15.10
2022-10-11T21:41:09.950Z,15.07
2022-10-11T21:43:38.281Z,14.87
2022-10-11T21:46:15.592Z,14.66
2022-10-11T21:48:42.214Z,14.67
2022-10-11T21:51:15.161Z,14.75
2022-10-11T21:53:41.593Z,14.73
2022-10-11T21:56:07.985Z,14.82
2022-10-11T21:58:34.616Z,14.91
2022-10-11T22:01:01.080Z,14.96
2022-10-11T22:03:27.477Z,14.93
2022-10-11T22:05:53.848Z,14.97
2022-10-11T22:08:20.325Z,14.96
2022-10-11T22:10:53.956Z,14.84
2022-10-11T22:13:20.421Z,14.71
2022-10-11T22:15:46.886Z,14.62
2022-10-11T22:18:13.280Z,14.58
2022-10-11T22:20:39.720Z,14.66
2022-10-11T22:23:06.258Z,14.57
2022-10-11T22:25:37.430Z,14.62
2022-10-11T22:28:04.356Z,14.67
2022-10-11T22:30:31.300Z,14.64
2022-10-11T22:32:57.723Z,14.57
2022-10-11T22:35:24.197Z,14.50
2022-10-11T22:37:50.809Z,14.53
2022-10-11T22:40:18.413Z,14.57
2022-10-11T22:42:44.965Z,14.49
2022-10-11T22:45:12.042Z,14.47
2022-10-11T22:47:38.598Z,14.36
2022-10-11T22:50:05.655Z,14.32
2022-10-11T22:52:32.095Z,14.29
2022-10-11T22:54:58.468Z,14.34
2022-10-11T22:57:24.903Z,14.38
2022-10-11T22:59:51.298Z,14.24
2022-10-11T23:02:17.761Z,14.17
2022-10-11T23:04:44.177Z,14.18
2022-10-11T23:07:10.574Z,14.17
2022-10-11T23:09:36.958Z,14.13
2022-10-11T23:12:03.496Z,14.06
2022-10-11T23:14:29.880Z,14.00
2022-10-11T23:16:56.270Z,13.92
2022-10-11T23:19:22.682Z,13.89
2022-10-11T23:21:49.135Z,13.86
2022-10-11T23:24:15.621Z,13.83
2022-10-11T23:26:42.078Z,13.78
2022-10-11T23:29:08.524Z,13.76
2022-10-11T23:31:34.969Z,13.81
2022-10-11T23:34:01.411Z,13.80
2022-10-11T23:36:27.812Z,13.83
2022-10-11T23:38:56.683Z,13.92
2022-10-11T23:41:25.457Z,14.01
2022-10-11T23:43:51.946Z,14.00
2022-10-11T23:46:18.423Z,14.05
2022-10-11T23:48:45.065Z,14.00
2022-10-11T23:51:11.846Z,13.94
2022-10-11T23:53:38.245Z,13.97
2022-10-11T23:56:05.680Z,14.01
2022-10-11T23:58:32.590Z,14.05
